createdAt,value
2022-08-01T00:00:47.921Z,3.10
2022-08-01T00:01:47.907Z,3.00
2022-08-01T00:02:47.917Z,2.80
2022-08-01T00:03:47.896Z,2.80
2022-08-01T00:04:47.892Z,2.70
2022-08-01T00:05:47.864Z,2.70
2022-08-01T00:06:47.910Z,2.60
2022-08-01T00:07:47.841Z,2.50
2022-08-01T00:08:47.848Z,2.70
2022-08-01T00:09:47.853Z,2.90
2022-08-01T00:10:47.815Z,2.90
2022-08-01T00:11:47.796Z,2.80
2022-08-01T00:12:48.836Z,2.80
2022-08-01T00:13:47.774Z,3.00
2022-08-01T00:14:47.786Z,2.80
2022-08-01T00:15:54.096Z,2.90
2022-08-01T00:16:48.741Z,3.00
2022-08-01T00:17:47.738Z,2.50
2022-08-01T00:18:47.714Z,2.90
2022-08-01T00:19:47.767Z,2.80
2022-08-01T00:20:47.697Z,2.70
2022-08-01T00:21:52.010Z,2.80
2022-08-01T00:22:47.680Z,2.70
2022-08-01T00:23:47.687Z,2.90
2022-08-01T00:24:47.682Z,2.90
2022-08-01T00:25:47.650Z,2.50
2022-08-01T00:26:47.625Z,2.80
2022-08-01T00:27:47.675Z,2.90
2022-08-01T00:28:47.604Z,2.70
2022-08-01T00:30:10.756Z,2.40
2022-08-01T00:30:48.612Z,2.80
2022-08-01T00:31:47.572Z,2.60
2022-08-01T00:32:47.575Z,2.60
2022-08-01T00:33:47.553Z,2.70
2022-08-01T00:34:47.578Z,2.90
2022-08-01T00:35:47.532Z,2.70
2022-08-01T00:36:47.538Z,2.80
2022-08-01T00:37:47.505Z,2.70
2022-08-01T00:38:47.492Z,2.70
2022-08-01T00:39:47.490Z,2.60
2022-08-01T00:40:47.476Z,2.90
2022-08-01T00:41:47.450Z,2.70
2022-08-01T00:42:47.458Z,3.00
2022-08-01T00:43:47.459Z,2.70
2022-08-01T00:44:47.424Z,3.20
2022-08-01T00:45:47.414Z,2.90
2022-08-01T00:46:47.475Z,2.90
2022-08-01T00:47:47.397Z,2.70
2022-08-01T00:48:47.488Z,2.70
2022-08-01T00:49:47.373Z,3.10
2022-08-01T00:50:47.355Z,2.90
2022-08-01T00:51:47.433Z,3.00
2022-08-01T00:52:50.072Z,2.70
2022-08-01T00:53:51.736Z,2.70
2022-08-01T00:54:48.331Z,2.80
2022-08-01T00:55:47.298Z,3.00
2022-08-01T00:56:47.280Z,3.10
2022-08-01T00:58:03.089Z,3.10
2022-08-01T00:58:48.271Z,3.00
2022-08-01T00:59:47.252Z,2.90
2022-08-01T01:00:52.430Z,3.00
2022-08-01T01:01:50.033Z,3.10
2022-08-01T01:02:47.222Z,3.10
2022-08-01T01:03:59.902Z,3.30
2022-08-01T01:04:48.222Z,3.30
2022-08-01T01:05:47.248Z,3.20
2022-08-01T01:06:47.176Z,3.10
2022-08-01T01:07:49.567Z,3.10
2022-08-01T01:08:47.156Z,2.80
2022-08-01T01:09:47.146Z,2.90
2022-08-01T01:10:47.162Z,2.80
2022-08-01T01:11:47.127Z,3.00
2022-08-01T01:12:50.149Z,3.40
2022-08-01T01:13:50.106Z,3.00
2022-08-01T01:14:47.083Z,2.70
2022-08-01T01:15:47.132Z,3.20
2022-08-01T01:16:47.076Z,3.00
2022-08-01T01:17:50.034Z,2.80
2022-08-01T01:18:47.034Z,3.10
2022-08-01T01:19:47.025Z,3.00
2022-08-01T01:20:47.011Z,3.10
2022-08-01T01:21:47.015Z,2.80
2022-08-01T01:22:47.009Z,3.20
2022-08-01T01:23:46.990Z,3.10
2022-08-01T01:24:46.968Z,3.20
2022-08-01T01:25:47.013Z,2.90
2022-08-01T01:26:46.946Z,3.10
2022-08-01T01:27:46.936Z,2.70
2022-08-01T01:28:46.944Z,2.90
2022-08-01T01:30:00.437Z,3.10
2022-08-01T01:30:47.898Z,2.80
2022-08-01T01:31:46.890Z,3.20
2022-08-01T01:32:46.875Z,2.80
2022-08-01T01:33:47.309Z,3.10
2022-08-01T01:34:46.981Z,2.60
2022-08-01T01:35:46.843Z,3.00
2022-08-01T01:36:46.830Z,3.40
2022-08-01T01:37:46.864Z,3.10
2022-08-01T01:38:46.833Z,3.00
2022-08-01T01:39:48.195Z,3.10
2022-08-01T01:40:47.792Z,3.20
2022-08-01T01:41:46.872Z,3.20
2022-08-01T01:42:46.756Z,3.00
2022-08-01T01:43:46.760Z,3.30
2022-08-01T01:44:46.850Z,3.50
2022-08-01T01:45:46.733Z,3.30
2022-08-01T01:46:46.717Z,2.90
2022-08-01T01:47:46.816Z,3.40
2022-08-01T01:48:46.793Z,3.20
2022-08-01T01:49:46.704Z,2.80
2022-08-01T01:50:46.672Z,3.00
2022-08-01T01:51:54.171Z,3.20
2022-08-01T01:52:47.659Z,3.20
2022-08-01T01:53:46.644Z,3.00
2022-08-01T01:54:46.643Z,3.30
2022-08-01T01:55:49.513Z,2.80
2022-08-01T01:56:46.600Z,3.10
2022-08-01T01:57:46.606Z,2.80
2022-08-01T01:58:46.582Z,3.10
2022-08-01T01:59:46.594Z,2.80
2022-08-01T02:00:46.575Z,2.80
2022-08-01T02:02:08.729Z,3.30
2022-08-01T02:02:47.643Z,3.00
2022-08-01T02:03:46.546Z,2.90
2022-08-01T02:04:46.534Z,3.20
2022-08-01T02:05:46.504Z,2.90
2022-08-01T02:06:46.490Z,3.10
2022-08-01T02:07:46.477Z,3.20
2022-08-01T02:08:46.480Z,3.20
2022-08-01T02:09:46.477Z,3.20
2022-08-01T02:10:46.495Z,3.10
2022-08-01T02:12:07.605Z,3.00
2022-08-01T02:12:47.424Z,3.30
2022-08-01T02:13:46.410Z,3.00
2022-08-01T02:14:46.436Z,2.90
2022-08-01T02:15:59.433Z,3.00
2022-08-01T02:16:47.379Z,3.00
2022-08-01T02:17:46.359Z,3.20
2022-08-01T02:18:46.377Z,3.10
2022-08-01T02:19:46.353Z,2.90
2022-08-01T02:20:46.360Z,3.10
2022-08-01T02:21:47.323Z,3.00
2022-08-01T02:22:46.320Z,2.90
2022-08-01T02:23:46.300Z,3.10
2022-08-01T02:24:46.316Z,3.10
2022-08-01T02:26:10.872Z,3.30
2022-08-01T02:26:47.266Z,3.10
2022-08-01T02:27:46.258Z,2.70
2022-08-01T02:28:46.250Z,3.00
2022-08-01T02:29:46.256Z,3.20
2022-08-01T02:30:46.221Z,3.40
2022-08-01T02:31:46.214Z,2.90
2022-08-01T02:32:46.294Z,3.00
2022-08-01T02:33:46.186Z,2.90
2022-08-01T02:34:46.187Z,3.10
2022-08-01T02:36:31.175Z,3.00
2022-08-01T02:36:47.155Z,3.30
2022-08-01T02:37:46.939Z,3.40
2022-08-01T02:38:46.177Z,3.40
2022-08-01T02:39:46.138Z,3.20
2022-08-01T02:40:46.111Z,3.00
2022-08-01T02:41:46.106Z,3.30
2022-08-01T02:42:46.094Z,3.40
2022-08-01T02:43:46.074Z,3.20
2022-08-01T02:44:47.163Z,2.90
2022-08-01T02:45:46.057Z,3.00
2022-08-01T02:46:46.044Z,3.00
2022-08-01T02:47:46.029Z,3.30
2022-08-01T02:48:46.022Z,3.20
2022-08-01T02:49:46.259Z,3.40
2022-08-01T02:50:46.099Z,3.40
2022-08-01T02:51:45.986Z,3.10
2022-08-01T02:52:45.977Z,3.20
2022-08-01T02:53:45.966Z,3.30
2022-08-01T02:54:45.957Z,3.40
2022-08-01T02:55:45.955Z,3.40
2022-08-01T02:56:45.949Z,3.20
2022-08-01T02:57:51.582Z,3.40
2022-08-01T02:58:46.949Z,3.00
2022-08-01T02:59:45.910Z,3.20
2022-08-01T03:00:45.888Z,3.30
2022-08-01T03:01:46.081Z,3.40
2022-08-01T03:02:45.861Z,3.60
2022-08-01T03:03:45.855Z,3.20
2022-08-01T03:04:45.845Z,3.10
2022-08-01T03:05:45.889Z,3.70
2022-08-01T03:06:45.826Z,3.80
2022-08-01T03:07:45.851Z,3.60
2022-08-01T03:08:45.794Z,4.20
2022-08-01T03:09:45.792Z,3.50
2022-08-01T03:10:45.810Z,4.00
2022-08-01T03:11:45.760Z,3.50
2022-08-01T03:12:45.754Z,3.50
2022-08-01T03:13:45.800Z,3.30
2022-08-01T03:14:45.729Z,3.40
2022-08-01T03:15:45.718Z,3.50
2022-08-01T03:16:45.709Z,3.60
2022-08-01T03:17:45.695Z,3.90
2022-08-01T03:18:45.730Z,3.50
2022-08-01T03:19:45.694Z,3.30
2022-08-01T03:20:45.656Z,3.70
2022-08-01T03:21:45.649Z,3.50
2022-08-01T03:22:45.641Z,3.40
2022-08-01T03:23:45.628Z,4.00
2022-08-01T03:24:45.680Z,3.70
2022-08-01T03:25:45.614Z,3.90
2022-08-01T03:26:45.600Z,3.70
2022-08-01T03:27:45.586Z,3.50
2022-08-01T03:28:45.583Z,3.90
2022-08-01T03:29:45.596Z,4.10
2022-08-01T03:30:45.558Z,3.70
2022-08-01T03:31:45.551Z,3.80
2022-08-01T03:32:45.572Z,4.30
2022-08-01T03:33:45.515Z,3.40
2022-08-01T03:34:45.514Z,4.00
2022-08-01T03:35:45.491Z,3.70
2022-08-01T03:36:45.483Z,3.40
2022-08-01T03:38:13.088Z,3.70
2022-08-01T03:38:46.496Z,3.90
2022-08-01T03:39:45.469Z,3.20
2022-08-01T03:40:45.449Z,3.30
2022-08-01T03:41:45.425Z,3.10
2022-08-01T03:42:46.687Z,3.10
2022-08-01T03:43:45.404Z,3.30
2022-08-01T03:44:45.412Z,3.40
2022-08-01T03:45:45.384Z,3.00
2022-08-01T03:46:45.407Z,2.90
2022-08-01T03:47:45.361Z,3.30
2022-08-01T03:48:45.351Z,3.10
2022-08-01T03:49:45.360Z,3.50
2022-08-01T03:50:45.323Z,3.40
2022-08-01T03:51:45.333Z,3.30
2022-08-01T03:52:45.363Z,3.60
2022-08-01T03:53:45.300Z,3.50
2022-08-01T03:54:45.300Z,3.20
2022-08-01T03:55:45.329Z,3.40
2022-08-01T03:56:45.257Z,3.60
2022-08-01T03:57:45.251Z,3.30
2022-08-01T03:58:45.237Z,3.20
2022-08-01T03:59:46.321Z,3.40
2022-08-01T04:00:45.214Z,3.40
2022-08-01T04:01:45.289Z,3.20
2022-08-01T04:02:45.194Z,3.60
2022-08-01T04:03:45.192Z,3.40
2022-08-01T04:04:45.175Z,3.60
2022-08-01T04:05:45.164Z,4.00
2022-08-01T04:06:45.157Z,3.30
2022-08-01T04:07:45.246Z,3.30
2022-08-01T04:08:45.126Z,3.10
2022-08-01T04:09:45.118Z,3.30
2022-08-01T04:10:45.124Z,3.20
2022-08-01T04:11:45.099Z,3.20
2022-08-01T04:12:45.083Z,3.20
2022-08-01T04:13:45.094Z,3.30
2022-08-01T04:14:45.099Z,3.50
2022-08-01T04:15:45.052Z,4.00
2022-08-01T04:16:45.036Z,3.50
2022-08-01T04:17:45.037Z,3.50
2022-08-01T04:18:45.035Z,3.60
2022-08-01T04:19:45.008Z,3.60
2022-08-01T04:20:45.054Z,3.60
2022-08-01T04:21:44.980Z,3.50
2022-08-01T04:22:44.977Z,3.60
2022-08-01T04:23:44.980Z,3.80
2022-08-01T04:24:44.946Z,3.70
2022-08-01T04:25:44.932Z,3.50
2022-08-01T04:26:44.922Z,3.60
2022-08-01T04:27:50.919Z,3.60
2022-08-01T04:28:45.966Z,4.30
2022-08-01T04:29:44.892Z,3.40
2022-08-01T04:30:44.887Z,3.70
2022-08-01T04:31:44.870Z,3.40
2022-08-01T04:32:44.858Z,4.00
2022-08-01T04:33:44.897Z,4.30
2022-08-01T04:34:44.845Z,3.90
2022-08-01T04:36:02.490Z,3.80
2022-08-01T04:36:45.811Z,3.80
2022-08-01T04:37:44.805Z,4.10
2022-08-01T04:38:44.812Z,4.20
2022-08-01T04:39:50.701Z,4.20
2022-08-01T04:40:45.770Z,3.90
2022-08-01T04:41:44.800Z,4.30
2022-08-01T04:42:44.744Z,4.50
2022-08-01T04:43:44.739Z,4.60
2022-08-01T04:44:44.742Z,4.70
2022-08-01T04:45:44.745Z,4.50
2022-08-01T04:46:44.710Z,4.10
2022-08-01T04:47:44.683Z,4.40
2022-08-01T04:48:44.731Z,5.00
2022-08-01T04:49:49.016Z,4.40
2022-08-01T04:50:44.657Z,4.60
2022-08-01T04:51:44.642Z,5.20
2022-08-01T04:52:44.633Z,4.60
2022-08-01T04:53:44.621Z,5.20
2022-08-01T04:54:44.631Z,4.60
2022-08-01T04:55:44.662Z,5.10
2022-08-01T04:56:44.592Z,5.10
2022-08-01T04:57:44.581Z,5.60
2022-08-01T04:58:44.565Z,4.70
2022-08-01T04:59:44.577Z,4.90
2022-08-01T05:00:44.553Z,4.90
2022-08-01T05:01:44.560Z,5.20
2022-08-01T05:02:44.517Z,5.30
2022-08-01T05:03:44.551Z,5.60
2022-08-01T05:04:44.516Z,5.10
2022-08-01T05:05:44.491Z,5.20
2022-08-01T05:06:44.478Z,5.50
2022-08-01T05:07:45.416Z,4.80
2022-08-01T05:08:44.456Z,5.60
2022-08-01T05:09:44.557Z,5.20
2022-08-01T05:10:44.430Z,4.80
2022-08-01T05:11:44.422Z,5.30
2022-08-01T05:12:44.414Z,5.20
2022-08-01T05:13:44.401Z,6.10
2022-08-01T05:14:44.393Z,5.50
2022-08-01T05:15:44.390Z,6.00
2022-08-01T05:16:44.423Z,5.70
2022-08-01T05:17:44.351Z,5.20
2022-08-01T05:18:44.345Z,5.20
2022-08-01T05:19:44.345Z,6.10
2022-08-01T05:20:44.336Z,6.10
2022-08-01T05:21:44.318Z,5.70
2022-08-01T05:22:44.314Z,5.80
2022-08-01T05:23:44.355Z,5.50
2022-08-01T05:24:44.279Z,5.80
2022-08-01T05:25:56.158Z,5.80
2022-08-01T05:26:45.278Z,5.70
2022-08-01T05:27:44.244Z,5.60
2022-08-01T05:28:44.224Z,6.00
2022-08-01T05:29:44.734Z,5.50
2022-08-01T05:30:44.204Z,5.40
2022-08-01T05:31:44.193Z,5.80
2022-08-01T05:32:44.193Z,5.60
2022-08-01T05:33:44.195Z,5.50
2022-08-01T05:34:44.171Z,5.50
2022-08-01T05:35:47.906Z,5.60
2022-08-01T05:36:45.139Z,5.40
2022-08-01T05:37:44.131Z,5.50
2022-08-01T05:38:44.131Z,4.90
2022-08-01T05:39:44.108Z,5.20
2022-08-01T05:40:44.098Z,5.30
2022-08-01T05:41:44.082Z,5.40
2022-08-01T05:42:44.116Z,5.50
2022-08-01T05:43:44.064Z,5.20
2022-08-01T05:44:44.061Z,5.10
2022-08-01T05:45:44.037Z,5.20
2022-08-01T05:46:44.033Z,4.90
2022-08-01T05:47:44.009Z,5.20
2022-08-01T05:48:44.024Z,5.30
2022-08-01T05:49:44.014Z,4.30
2022-08-01T05:50:43.990Z,5.10
2022-08-01T05:51:43.967Z,5.00
2022-08-01T05:52:43.953Z,4.50
2022-08-01T05:53:43.945Z,5.00
2022-08-01T05:54:43.947Z,5.00
2022-08-01T05:55:43.951Z,5.10
2022-08-01T05:56:43.919Z,4.60
2022-08-01T05:57:43.952Z,4.20
2022-08-01T05:58:43.883Z,4.60
2022-08-01T05:59:43.893Z,4.30
2022-08-01T06:00:43.865Z,4.40
2022-08-01T06:01:44.903Z,4.00
2022-08-01T06:02:43.937Z,4.30
2022-08-01T06:03:43.895Z,4.40
2022-08-01T06:04:43.877Z,4.20
2022-08-01T06:05:43.816Z,4.40
2022-08-01T06:06:43.800Z,4.40
2022-08-01T06:07:43.839Z,4.30
2022-08-01T06:08:43.789Z,4.30
2022-08-01T06:09:43.777Z,4.40
2022-08-01T06:10:43.823Z,4.50
2022-08-01T06:11:43.747Z,4.60
2022-08-01T06:12:43.748Z,4.10
2022-08-01T06:13:44.977Z,3.70
2022-08-01T06:14:44.734Z,3.80
2022-08-01T06:15:43.751Z,3.90
2022-08-01T06:16:43.692Z,4.30
2022-08-01T06:17:43.675Z,3.80
2022-08-01T06:18:43.678Z,3.90
2022-08-01T06:19:43.653Z,3.30
2022-08-01T06:20:43.666Z,4.10
2022-08-01T06:21:43.632Z,3.60
2022-08-01T06:22:43.622Z,3.10
2022-08-01T06:23:43.688Z,3.50
2022-08-01T06:24:43.601Z,3.40
2022-08-01T06:25:43.586Z,3.50
2022-08-01T06:26:43.595Z,3.70
2022-08-01T06:27:43.571Z,3.50
2022-08-01T06:28:43.554Z,2.90
2022-08-01T06:29:51.192Z,3.30
2022-08-01T06:30:44.523Z,3.60
2022-08-01T06:31:43.545Z,3.70
2022-08-01T06:32:43.524Z,3.70
2022-08-01T06:33:43.491Z,3.40
2022-08-01T06:34:43.485Z,3.10
2022-08-01T06:35:43.479Z,3.40
2022-08-01T06:36:43.472Z,3.10
2022-08-01T06:37:43.451Z,3.40
2022-08-01T06:38:43.453Z,3.10
2022-08-01T06:39:43.434Z,3.30
2022-08-01T06:40:43.486Z,3.00
2022-08-01T06:41:43.410Z,3.30
2022-08-01T06:42:43.398Z,3.50
2022-08-01T06:43:43.376Z,2.70
2022-08-01T06:44:43.403Z,3.50
2022-08-01T06:45:43.355Z,3.00
2022-08-01T06:46:43.347Z,3.10
2022-08-01T06:47:43.332Z,3.00
2022-08-01T06:48:43.389Z,3.10
2022-08-01T06:49:43.328Z,2.70
2022-08-01T06:50:43.302Z,2.70
2022-08-01T06:51:43.287Z,3.10
2022-08-01T06:52:43.283Z,3.10
2022-08-01T06:53:43.981Z,2.80
2022-08-01T06:54:43.363Z,3.00
2022-08-01T06:55:43.241Z,2.90
2022-08-01T06:56:43.226Z,2.60
2022-08-01T06:57:43.353Z,3.00
2022-08-01T06:58:43.219Z,2.90
2022-08-01T06:59:51.830Z,3.10
2022-08-01T07:00:44.257Z,2.80
2022-08-01T07:01:43.210Z,3.00
2022-08-01T07:02:43.164Z,3.10
2022-08-01T07:03:52.822Z,2.80
2022-08-01T07:04:44.151Z,2.50
2022-08-01T07:05:43.130Z,2.70
2022-08-01T07:06:43.121Z,2.70
2022-08-01T07:07:43.190Z,2.60
2022-08-01T07:08:43.097Z,2.70
2022-08-01T07:09:43.097Z,2.50
2022-08-01T07:10:43.079Z,2.30
2022-08-01T07:11:43.083Z,2.30
2022-08-01T07:12:43.052Z,2.50
2022-08-01T07:13:45.544Z,2.50
2022-08-01T07:14:43.128Z,2.70
2022-08-01T07:15:43.009Z,2.10
2022-08-01T07:16:43.011Z,2.40
2022-08-01T07:17:42.990Z,2.30
2022-08-01T07:18:43.022Z,2.50
2022-08-01T07:19:42.979Z,2.30
2022-08-01T07:20:51.185Z,2.60
2022-08-01T07:21:45.301Z,2.70
2022-08-01T07:22:42.963Z,2.80
2022-08-01T07:23:45.819Z,2.40
2022-08-01T07:24:43.382Z,2.70
2022-08-01T07:25:51.671Z,2.50
2022-08-01T07:26:53.248Z,2.30
2022-08-01T07:27:43.873Z,2.40
2022-08-01T07:28:43.930Z,2.60
2022-08-01T07:29:42.877Z,2.80
2022-08-01T07:30:42.844Z,2.60
2022-08-01T07:31:42.836Z,2.90
2022-08-01T07:32:42.837Z,2.70
2022-08-01T07:33:48.687Z,2.30
2022-08-01T07:34:43.923Z,2.70
2022-08-01T07:35:42.787Z,2.60
2022-08-01T07:36:42.784Z,2.60
2022-08-01T07:37:48.946Z,2.80
2022-08-01T07:38:43.749Z,2.50
2022-08-01T07:39:42.749Z,2.90
2022-08-01T07:40:42.725Z,2.60
2022-08-01T07:41:52.964Z,2.20
2022-08-01T07:42:43.712Z,2.70
2022-08-01T07:43:49.304Z,2.80
2022-08-01T07:44:43.702Z,2.40
2022-08-01T07:45:43.872Z,3.20
2022-08-01T07:46:42.674Z,2.50
2022-08-01T07:47:42.647Z,2.20
2022-08-01T07:48:42.655Z,2.00
2022-08-01T07:49:42.697Z,2.30
2022-08-01T07:50:42.616Z,2.00
2022-08-01T07:51:42.603Z,2.20
2022-08-01T07:52:43.634Z,2.50
2022-08-01T07:53:42.584Z,2.10
2022-08-01T07:54:42.570Z,2.00
2022-08-01T07:55:42.570Z,1.90
2022-08-01T07:56:42.547Z,2.10
2022-08-01T07:57:42.548Z,2.10
2022-08-01T07:58:42.523Z,2.30
2022-08-01T07:59:42.545Z,2.20
2022-08-01T08:00:42.575Z,2.30
2022-08-01T08:01:42.527Z,2.50
2022-08-01T08:02:42.473Z,2.40
2022-08-01T08:03:42.511Z,2.40
2022-08-01T08:04:45.792Z,2.40
2022-08-01T08:05:58.723Z,2.40
2022-08-01T08:06:43.464Z,2.70
2022-08-01T08:07:42.421Z,2.50
2022-08-01T08:08:42.413Z,2.30
2022-08-01T08:09:42.389Z,2.20
2022-08-01T08:10:42.394Z,2.60
2022-08-01T08:11:47.119Z,2.30
2022-08-01T08:12:43.364Z,2.60
2022-08-01T08:13:42.368Z,2.50
2022-08-01T08:14:42.346Z,2.30
2022-08-01T08:15:42.326Z,2.40
2022-08-01T08:16:43.351Z,2.30
2022-08-01T08:17:42.353Z,2.50
2022-08-01T08:18:42.293Z,2.80
2022-08-01T08:19:42.288Z,2.30
2022-08-01T08:20:42.279Z,2.60
2022-08-01T08:21:42.339Z,2.50
2022-08-01T08:22:42.276Z,2.70
2022-08-01T08:23:44.043Z,2.50
2022-08-01T08:24:46.492Z,2.50
2022-08-01T08:25:42.304Z,2.50
2022-08-01T08:26:42.210Z,2.60
2022-08-01T08:27:42.202Z,2.50
2022-08-01T08:28:42.200Z,2.20
2022-08-01T08:29:42.175Z,2.10
2022-08-01T08:30:42.207Z,2.20
2022-08-01T08:31:50.779Z,2.20
2022-08-01T08:32:43.149Z,2.40
2022-08-01T08:33:42.125Z,2.30
2022-08-01T08:34:42.152Z,2.50
2022-08-01T08:35:53.759Z,2.00
2022-08-01T08:36:47.725Z,2.00
2022-08-01T08:37:47.548Z,2.20
2022-08-01T08:38:42.075Z,2.10
2022-08-01T08:39:42.465Z,1.70
2022-08-01T08:40:42.063Z,1.80
2022-08-01T08:41:42.034Z,1.70
2022-08-01T08:42:42.025Z,1.50
2022-08-01T08:43:42.017Z,1.70
2022-08-01T08:44:43.658Z,1.60
2022-08-01T08:45:45.078Z,1.40
2022-08-01T08:46:42.973Z,1.50
2022-08-01T08:47:41.973Z,1.90
2022-08-01T08:48:41.953Z,1.70
2022-08-01T08:49:43.553Z,2.20
2022-08-01T08:50:41.943Z,2.00
2022-08-01T08:51:41.972Z,1.60
2022-08-01T08:52:41.919Z,1.80
2022-08-01T08:53:41.913Z,2.00
2022-08-01T08:54:41.883Z,1.50
2022-08-01T08:55:55.445Z,1.60
2022-08-01T08:56:42.869Z,1.50
2022-08-01T08:57:41.922Z,1.20
2022-08-01T08:58:41.898Z,1.30
2022-08-01T08:59:41.848Z,1.40
2022-08-01T09:00:41.824Z,1.40
2022-08-01T09:01:42.810Z,1.40
2022-08-01T09:02:41.976Z,1.30
2022-08-01T09:03:42.039Z,1.30
2022-08-01T09:04:41.800Z,1.00
2022-08-01T09:05:41.773Z,1.10
2022-08-01T09:06:41.818Z,1.10
2022-08-01T09:07:41.807Z,1.10
2022-08-01T09:08:41.734Z,1.00
2022-08-01T09:09:42.080Z,1.20
2022-08-01T09:10:41.709Z,0.90
2022-08-01T09:11:41.695Z,1.00
2022-08-01T09:12:41.701Z,0.90
2022-08-01T09:13:45.218Z,1.10
2022-08-01T09:14:41.721Z,1.00
2022-08-01T09:15:41.671Z,1.30
2022-08-01T09:16:47.996Z,1.30
2022-08-01T09:17:42.632Z,1.20
2022-08-01T09:18:41.645Z,1.00
2022-08-01T09:19:42.061Z,1.10
2022-08-01T09:20:41.598Z,0.90
2022-08-01T09:21:41.623Z,1.10
2022-08-01T09:22:45.025Z,1.00
2022-08-01T09:23:53.306Z,1.00
2022-08-01T09:24:42.561Z,1.00
2022-08-01T09:25:47.896Z,0.90
2022-08-01T09:26:42.528Z,1.20
2022-08-01T09:27:44.336Z,1.10
2022-08-01T09:28:44.971Z,1.00
2022-08-01T09:29:42.508Z,1.40
2022-08-01T09:30:41.546Z,1.20
2022-08-01T09:31:41.476Z,1.20
2022-08-01T09:32:42.454Z,0.80
2022-08-01T09:33:41.452Z,1.00
2022-08-01T09:34:41.460Z,1.00
2022-08-01T09:35:43.802Z,1.10
2022-08-01T09:36:41.424Z,1.10
2022-08-01T09:37:41.401Z,0.90
2022-08-01T09:38:46.193Z,1.10
2022-08-01T09:39:42.430Z,1.00
2022-08-01T09:40:41.366Z,1.10
2022-08-01T09:41:41.364Z,0.90
2022-08-01T09:42:41.343Z,1.10
2022-08-01T09:43:41.353Z,1.10
2022-08-01T09:44:42.637Z,1.10
2022-08-01T09:45:43.803Z,1.50
2022-08-01T09:46:41.354Z,1.30
2022-08-01T09:47:41.296Z,1.20
2022-08-01T09:48:41.281Z,1.30
2022-08-01T09:49:50.665Z,1.00
2022-08-01T09:50:42.257Z,1.40
2022-08-01T09:51:58.984Z,1.40
2022-08-01T09:52:42.286Z,1.40
2022-08-01T09:53:41.215Z,1.40
2022-08-01T09:54:41.209Z,1.50
2022-08-01T09:55:41.219Z,1.60
2022-08-01T09:56:41.185Z,1.70
2022-08-01T09:57:41.180Z,1.90
2022-08-01T09:58:41.240Z,1.50
2022-08-01T09:59:57.742Z,1.50
2022-08-01T10:00:45.704Z,1.50
2022-08-01T10:01:41.129Z,1.70
2022-08-01T10:02:41.137Z,1.60
2022-08-01T10:03:41.208Z,1.60
2022-08-01T10:04:41.120Z,1.30
2022-08-01T10:05:41.092Z,1.60
2022-08-01T10:06:41.635Z,1.10
2022-08-01T10:07:43.781Z,1.70
2022-08-01T10:08:41.056Z,1.60
2022-08-01T10:09:41.311Z,1.50
2022-08-01T10:10:41.026Z,1.40
2022-08-01T10:11:41.023Z,1.60
2022-08-01T10:12:44.468Z,1.80
2022-08-01T10:13:41.060Z,1.70
2022-08-01T10:14:41.097Z,1.40
2022-08-01T10:15:40.989Z,1.50
2022-08-01T10:16:40.966Z,1.70
2022-08-01T10:17:50.333Z,1.60
2022-08-01T10:18:41.971Z,1.60
2022-08-01T10:19:40.959Z,1.30
2022-08-01T10:20:40.995Z,1.50
2022-08-01T10:21:56.713Z,1.70
2022-08-01T10:22:41.890Z,1.70
2022-08-01T10:23:41.362Z,1.50
2022-08-01T10:24:40.895Z,1.40
2022-08-01T10:25:42.289Z,1.50
2022-08-01T10:26:40.883Z,1.80
2022-08-01T10:27:40.949Z,1.60
2022-08-01T10:28:40.821Z,1.90
2022-08-01T10:29:58.970Z,1.80
2022-08-01T10:30:41.817Z,2.00
2022-08-01T10:31:40.796Z,1.70
2022-08-01T10:32:40.812Z,1.70
2022-08-01T10:33:50.653Z,1.90
2022-08-01T10:34:44.829Z,1.90
2022-08-01T10:35:47.802Z,1.50
2022-08-01T10:36:41.735Z,1.60
2022-08-01T10:37:51.874Z,1.80
2022-08-01T10:38:41.827Z,1.70
2022-08-01T10:39:40.711Z,1.70
2022-08-01T10:40:40.697Z,1.80
2022-08-01T10:41:41.632Z,1.80
2022-08-01T10:42:40.678Z,1.60
2022-08-01T10:43:41.461Z,1.50
2022-08-01T10:44:41.658Z,1.80
2022-08-01T10:45:40.639Z,1.40
2022-08-01T10:46:40.666Z,1.50
2022-08-01T10:47:50.695Z,1.50
2022-08-01T10:48:41.595Z,1.70
2022-08-01T10:49:40.662Z,1.60
2022-08-01T10:50:40.706Z,1.60
2022-08-01T10:51:51.486Z,1.60
2022-08-01T10:52:41.559Z,1.50
2022-08-01T10:53:42.984Z,1.60
2022-08-01T10:54:40.546Z,1.40
2022-08-01T10:55:41.529Z,1.20
2022-08-01T10:56:40.514Z,1.50
2022-08-01T10:57:40.512Z,1.40
2022-08-01T10:58:42.165Z,1.30
2022-08-01T10:59:50.931Z,1.50
2022-08-01T11:00:41.471Z,1.40
2022-08-01T11:01:44.974Z,1.20
2022-08-01T11:02:41.439Z,1.20
2022-08-01T11:03:56.540Z,1.30
2022-08-01T11:04:41.433Z,1.30
2022-08-01T11:05:40.403Z,1.30
2022-08-01T11:06:40.411Z,1.10
2022-08-01T11:07:40.463Z,1.30
2022-08-01T11:08:40.381Z,0.90
2022-08-01T11:09:40.369Z,1.00
2022-08-01T11:10:40.362Z,1.10
2022-08-01T11:11:40.343Z,1.30
2022-08-01T11:12:40.330Z,1.30
2022-08-01T11:13:40.332Z,1.10
2022-08-01T11:14:55.352Z,1.10
2022-08-01T11:15:50.478Z,1.20
2022-08-01T11:16:41.280Z,1.30
2022-08-01T11:17:42.575Z,1.10
2022-08-01T11:18:40.264Z,1.20
2022-08-01T11:19:40.276Z,1.10
2022-08-01T11:20:41.993Z,1.10
2022-08-01T11:21:57.381Z,1.10
2022-08-01T11:22:41.224Z,1.10
2022-08-01T11:23:40.206Z,1.10
2022-08-01T11:24:40.208Z,1.20
2022-08-01T11:26:06.165Z,1.70
2022-08-01T11:26:41.172Z,1.90
2022-08-01T11:27:40.168Z,1.10
2022-08-01T11:28:41.200Z,1.00
2022-08-01T11:29:41.150Z,0.80
2022-08-01T11:30:40.134Z,1.00
2022-08-01T11:31:40.118Z,1.20
2022-08-01T11:32:58.965Z,0.70
2022-08-01T11:33:41.095Z,1.10
2022-08-01T11:34:40.095Z,1.30
2022-08-01T11:35:40.088Z,1.20
2022-08-01T11:37:09.769Z,1.60
2022-08-01T11:37:41.049Z,1.40
2022-08-01T11:38:40.038Z,1.10
2022-08-01T11:39:40.059Z,1.10
2022-08-01T11:40:40.015Z,1.40
2022-08-01T11:41:40.000Z,1.20
2022-08-01T11:42:39.992Z,1.20
2022-08-01T11:43:39.983Z,1.40
2022-08-01T11:44:40.024Z,1.40
2022-08-01T11:45:39.952Z,1.30
2022-08-01T11:46:39.964Z,1.50
2022-08-01T11:47:39.938Z,1.20
2022-08-01T11:48:39.933Z,1.10
2022-08-01T11:49:39.970Z,1.10
2022-08-01T11:50:39.910Z,1.50
2022-08-01T11:51:39.887Z,1.30
2022-08-01T11:52:39.935Z,1.50
2022-08-01T11:53:39.866Z,1.30
2022-08-01T11:54:39.870Z,1.30
2022-08-01T11:55:39.838Z,1.20
2022-08-01T11:56:42.965Z,1.20
2022-08-01T11:57:40.840Z,1.20
2022-08-01T11:58:39.811Z,1.00
2022-08-01T11:59:41.175Z,1.20
2022-08-01T12:00:43.853Z,1.20
2022-08-01T12:01:40.847Z,0.90
2022-08-01T12:02:39.937Z,1.10
2022-08-01T12:03:39.747Z,1.00
2022-08-01T12:04:40.758Z,1.00
2022-08-01T12:05:43.243Z,0.90
2022-08-01T12:06:40.677Z,1.00
2022-08-01T12:07:39.716Z,0.90
2022-08-01T12:08:39.695Z,0.70
2022-08-01T12:09:39.788Z,1.00
2022-08-01T12:10:49.484Z,0.80
2022-08-01T12:11:40.669Z,0.70
2022-08-01T12:12:39.662Z,0.80
2022-08-01T12:13:39.661Z,0.70
2022-08-01T12:14:39.641Z,1.00
2022-08-01T12:15:39.617Z,1.00
2022-08-01T12:16:39.675Z,0.80
2022-08-01T12:17:39.599Z,1.10
2022-08-01T12:18:39.586Z,0.80
2022-08-01T12:19:39.595Z,0.90
2022-08-01T12:20:42.771Z,1.10
2022-08-01T12:21:40.542Z,1.00
2022-08-01T12:22:39.543Z,1.00
2022-08-01T12:23:39.589Z,1.00
2022-08-01T12:24:39.538Z,1.10
2022-08-01T12:25:39.499Z,1.10
2022-08-01T12:26:39.495Z,1.20
2022-08-01T12:27:39.502Z,1.00
2022-08-01T12:28:39.468Z,0.90
2022-08-01T12:29:39.481Z,1.20
2022-08-01T12:30:39.462Z,1.10
2022-08-01T12:31:39.437Z,1.00
2022-08-01T12:32:39.420Z,1.10
2022-08-01T12:33:39.414Z,1.30
2022-08-01T12:34:39.468Z,1.00
2022-08-01T12:35:39.390Z,1.30
2022-08-01T12:36:39.385Z,1.40
2022-08-01T12:37:39.368Z,1.40
2022-08-01T12:38:39.359Z,1.00
2022-08-01T12:39:40.192Z,1.30
2022-08-01T12:40:43.370Z,1.60
2022-08-01T12:41:40.330Z,1.20
2022-08-01T12:42:39.323Z,1.50
2022-08-01T12:43:39.352Z,1.50
2022-08-01T12:44:39.315Z,1.40
2022-08-01T12:45:39.285Z,1.50
2022-08-01T12:46:44.104Z,1.70
2022-08-01T12:47:40.251Z,1.90
2022-08-01T12:48:39.245Z,1.60
2022-08-01T12:49:39.407Z,1.90
2022-08-01T12:50:39.232Z,1.70
2022-08-01T12:51:39.229Z,1.40
2022-08-01T12:52:39.193Z,1.90
2022-08-01T12:53:40.886Z,2.50
2022-08-01T12:54:39.259Z,2.70
2022-08-01T12:55:39.161Z,1.50
2022-08-01T12:56:40.150Z,1.20
2022-08-01T12:57:39.144Z,1.60
2022-08-01T12:58:39.138Z,1.20
2022-08-01T12:59:39.144Z,1.40
2022-08-01T13:00:39.103Z,1.50
2022-08-01T13:01:39.151Z,1.20
2022-08-01T13:02:39.093Z,1.30
2022-08-01T13:03:39.077Z,1.80
2022-08-01T13:04:39.174Z,3.80
2022-08-01T13:05:39.059Z,3.20
2022-08-01T13:06:39.048Z,2.80
2022-08-01T13:07:45.397Z,2.30
2022-08-01T13:08:40.050Z,3.50
2022-08-01T13:09:39.032Z,3.40
2022-08-01T13:10:39.002Z,2.60
2022-08-01T13:11:38.994Z,1.90
2022-08-01T13:12:39.981Z,1.60
2022-08-01T13:13:38.962Z,1.50
2022-08-01T13:14:41.808Z,1.50
2022-08-01T13:15:41.665Z,1.20
2022-08-01T13:16:56.279Z,1.30
2022-08-01T13:17:39.911Z,1.50
2022-08-01T13:18:38.899Z,1.30